createdAt,value
2019-06-10T00:04:21.939Z,2.50
2019-06-10T00:09:25.039Z,2.55
2019-06-10T00:14:31.354Z,2.05
2019-06-10T00:19:34.471Z,2.52
2019-06-10T00:24:40.752Z,2.27
2019-06-10T00:29:43.635Z,2.55
2019-06-10T00:34:47.395Z,2.22
2019-06-10T00:39:51.310Z,2.42
2019-06-10T00:44:55.143Z,2.60
2019-06-10T00:50:00.841Z,2.37
2019-06-10T00:55:06.518Z,2.40
2019-06-10T01:00:19.266Z,2.40
2019-06-10T01:05:17.340Z,2.47
2019-06-10T01:10:21.273Z,2.65
2019-06-10T01:15:25.188Z,2.15
2019-06-10T01:20:29.174Z,2.37
2019-06-10T01:25:32.909Z,2.98
2019-06-10T01:30:36.605Z,2.60
2019-06-10T01:35:41.516Z,2.80
2019-06-10T01:40:45.634Z,2.72
2019-06-10T01:45:51.099Z,3.08
2019-06-10T01:50:54.834Z,3.10
2019-06-10T01:56:00.847Z,3.00
2019-06-10T02:01:23.520Z,3.02
2019-06-10T02:06:27.410Z,2.42
2019-06-10T02:11:31.783Z,3.10
2019-06-10T02:16:35.940Z,2.60
2019-06-10T02:21:41.685Z,2.87
2019-06-10T02:26:45.330Z,2.95
2019-06-10T02:31:51.883Z,2.75
2019-06-10T02:36:54.723Z,3.22
2019-06-10T02:42:04.438Z,2.60
2019-06-10T02:47:08.573Z,2.58
2019-06-10T02:52:22.399Z,2.90
2019-06-10T02:57:30.546Z,2.47
2019-06-10T03:02:35.335Z,3.00
2019-06-10T03:07:35.553Z,2.67
2019-06-10T03:12:42.281Z,2.80
2019-06-10T03:17:45.529Z,2.65
2019-06-10T03:22:49.213Z,2.60
2019-06-10T03:27:53.070Z,2.62
2019-06-10T03:32:57.092Z,2.47
2019-06-10T03:38:02.913Z,2.87
2019-06-10T03:43:06.239Z,2.67
2019-06-10T03:48:09.923Z,2.72
2019-06-10T03:53:13.984Z,2.87
2019-06-10T03:58:17.656Z,2.98
2019-06-10T04:03:24.265Z,2.90
2019-06-10T04:08:28.000Z,2.87
2019-06-10T04:13:33.752Z,3.17
2019-06-10T04:18:37.125Z,3.20
2019-06-10T04:23:43.193Z,3.02
2019-06-10T04:28:46.902Z,2.70
2019-06-10T04:33:52.334Z,3.15
2019-06-10T04:38:56.014Z,3.37
2019-06-10T04:44:02.445Z,3.33
2019-06-10T04:49:05.829Z,3.30
2019-06-10T04:54:09.553Z,3.17
2019-06-10T04:59:13.585Z,3.02
2019-06-10T05:04:17.267Z,2.95
2019-06-10T05:09:23.798Z,3.02
2019-06-10T05:14:27.411Z,3.15
2019-06-10T05:19:33.777Z,3.20
2019-06-10T05:24:37.997Z,3.30
2019-06-10T05:29:42.211Z,2.90
2019-06-10T05:34:46.421Z,3.00
2019-06-10T05:39:52.555Z,3.20
2019-06-10T05:44:55.981Z,3.00
2019-06-10T05:50:02.722Z,3.37
2019-06-10T05:55:05.206Z,3.35
2019-06-10T06:00:14.010Z,3.10
2019-06-10T06:05:15.781Z,3.52
2019-06-10T06:10:22.260Z,3.00
2019-06-10T06:15:27.390Z,3.60
2019-06-10T06:20:35.932Z,3.47
2019-06-10T06:25:43.354Z,3.50
2019-06-10T06:30:45.311Z,3.50
2019-06-10T06:35:49.002Z,3.42
2019-06-10T06:40:53.767Z,3.20
2019-06-10T06:45:57.939Z,3.62
2019-06-10T06:51:08.090Z,3.75
2019-06-10T06:56:07.464Z,3.67
2019-06-10T07:01:14.370Z,3.90
2019-06-10T07:06:16.740Z,3.87
2019-06-10T07:11:22.418Z,3.60
2019-06-10T07:16:26.280Z,4.05
2019-06-10T07:21:30.083Z,3.45
2019-06-10T07:26:36.147Z,4.15
2019-06-10T07:31:41.789Z,3.58
2019-06-10T07:36:45.573Z,3.70
2019-06-10T07:41:49.497Z,3.33
2019-06-10T07:46:53.279Z,3.22
2019-06-10T07:52:12.177Z,4.00
2019-06-10T07:57:02.515Z,3.92
2019-06-10T08:02:06.331Z,3.37
2019-06-10T08:07:12.405Z,3.67
2019-06-10T08:12:15.905Z,3.65
2019-06-10T08:17:22.265Z,3.02
2019-06-10T08:22:33.600Z,3.50
2019-06-10T08:27:33.554Z,3.50
2019-06-10T08:32:37.962Z,3.52
2019-06-10T08:37:43.206Z,3.60
2019-06-10T08:42:48.920Z,3.30
2019-06-10T08:47:54.221Z,3.42
2019-06-10T08:53:10.744Z,3.77
2019-06-10T08:58:04.978Z,3.22
2019-06-10T09:03:09.204Z,3.42
2019-06-10T09:08:13.137Z,3.85
2019-06-10T09:13:17.092Z,3.47
2019-06-10T09:18:23.177Z,3.80
2019-06-10T09:23:26.619Z,3.60
2019-06-10T09:28:32.630Z,3.50
2019-06-10T09:33:36.060Z,3.37
2019-06-10T09:38:42.575Z,3.65
2019-06-10T09:43:50.040Z,3.50
2019-06-10T09:48:55.755Z,3.33
2019-06-10T09:54:03.674Z,3.60
2019-06-10T09:59:04.010Z,3.40
2019-06-10T10:04:08.116Z,3.72
2019-06-10T10:09:11.916Z,3.70
2019-06-10T10:14:16.104Z,3.58
2019-06-10T10:19:20.260Z,4.12
2019-06-10T10:24:24.158Z,3.65
2019-06-10T10:29:27.837Z,3.75
2019-06-10T10:34:33.315Z,4.05
2019-06-10T10:39:37.615Z,3.80
2019-06-10T10:44:44.352Z,4.17
2019-06-10T10:49:47.056Z,3.50
2019-06-10T10:54:53.959Z,4.22
2019-06-10T10:59:56.743Z,3.80
2019-06-10T11:05:01.092Z,4.20
2019-06-10T11:10:05.839Z,3.47
2019-06-10T11:15:13.660Z,4.35
2019-06-10T11:20:17.458Z,4.65
2019-06-10T11:25:23.207Z,4.45
2019-06-10T11:30:26.969Z,3.95
2019-06-10T11:35:30.750Z,4.08
2019-06-10T11:40:34.467Z,3.77
2019-06-10T11:45:44.217Z,3.85
2019-06-10T11:50:43.662Z,3.87
2019-06-10T11:55:47.938Z,3.50
2019-06-10T12:00:56.743Z,3.62
2019-06-10T12:06:00.752Z,3.50
2019-06-10T12:11:02.869Z,3.25
2019-06-10T12:16:51.503Z,3.50
2019-06-10T12:21:13.239Z,3.95
2019-06-10T12:26:17.309Z,3.90
2019-06-10T12:31:23.131Z,4.10
2019-06-10T12:36:26.390Z,3.62
2019-06-10T12:41:30.387Z,3.30
2019-06-10T12:46:34.419Z,3.47
2019-06-10T12:51:38.488Z,3.10
2019-06-10T12:56:43.067Z,3.20
2019-06-10T13:01:47.291Z,3.42
2019-06-10T13:06:52.588Z,3.15
2019-06-10T13:11:57.862Z,3.15
2019-06-10T13:17:02.962Z,3.50
2019-06-10T13:22:08.783Z,3.72
2019-06-10T13:27:12.834Z,3.67
2019-06-10T13:32:16.525Z,3.95
2019-06-10T13:37:22.649Z,3.80
2019-06-10T13:42:27.359Z,3.67
2019-06-10T13:47:33.221Z,3.47
2019-06-10T13:52:38.399Z,2.92
2019-06-10T13:57:42.646Z,3.02
2019-06-10T14:02:47.529Z,3.20
2019-06-10T14:07:52.496Z,3.30
2019-06-10T14:12:57.016Z,2.95
2019-06-10T14:18:01.805Z,3.20
2019-06-10T14:23:06.176Z,3.52
2019-06-10T14:28:12.609Z,3.50
2019-06-10T14:33:16.723Z,3.22
2019-06-10T14:38:22.128Z,3.30
2019-06-10T14:43:26.055Z,3.75
2019-06-10T14:48:29.749Z,3.00
2019-06-10T14:53:33.905Z,3.20
2019-06-10T14:58:37.852Z,3.30
2019-06-10T15:03:42.931Z,3.70
2019-06-10T15:08:46.908Z,3.20
2019-06-10T15:13:52.361Z,3.60
2019-06-10T15:19:10.875Z,3.25
2019-06-10T15:24:02.976Z,3.08
2019-06-10T15:29:06.918Z,3.47
2019-06-10T15:34:13.333Z,3.85
2019-06-10T15:39:19.302Z,3.50
2019-06-10T15:44:37.282Z,3.30
2019-06-10T15:49:27.129Z,3.37
2019-06-10T15:54:33.116Z,3.85
2019-06-10T15:59:36.559Z,3.60
2019-06-10T16:04:40.244Z,3.40
2019-06-10T16:09:44.222Z,3.47
2019-06-10T16:14:47.897Z,3.47
2019-06-10T16:19:53.108Z,3.10
2019-06-10T16:24:57.090Z,3.20
2019-06-10T16:30:02.796Z,2.87
2019-06-10T16:35:07.594Z,3.00
2019-06-10T16:40:12.272Z,2.83
2019-06-10T16:45:19.813Z,2.67
2019-06-10T16:50:23.833Z,2.12
2019-06-10T16:55:27.606Z,2.40
2019-06-10T17:00:34.544Z,2.40
2019-06-10T17:05:36.715Z,2.40
2019-06-10T17:10:43.364Z,2.05
2019-06-10T17:15:45.855Z,2.25
2019-06-10T17:20:49.786Z,2.45
2019-06-10T17:25:55.744Z,2.67
2019-06-10T17:30:59.753Z,2.50
2019-06-10T17:36:03.801Z,3.08
2019-06-10T17:41:07.551Z,2.30
2019-06-10T17:46:13.722Z,2.50
2019-06-10T17:51:17.420Z,3.10
2019-06-10T17:56:24.269Z,2.98
2019-06-10T18:01:27.184Z,2.92
2019-06-10T18:06:32.230Z,3.22
2019-06-10T18:11:36.825Z,3.52
2019-06-10T18:16:42.531Z,3.25
2019-06-10T18:21:45.951Z,3.22
2019-06-10T18:26:49.747Z,3.10
2019-06-10T18:31:53.443Z,2.80
2019-06-10T18:36:59.091Z,3.52
2019-06-10T18:42:04.002Z,3.33
2019-06-10T18:47:07.728Z,3.33
2019-06-10T18:52:12.731Z,3.10
2019-06-10T18:57:16.495Z,3.47
2019-06-10T19:02:22.503Z,2.85
2019-06-10T19:07:25.730Z,3.10
2019-06-10T19:12:29.723Z,3.25
2019-06-10T19:17:36.907Z,3.10
2019-06-10T19:22:39.375Z,3.50
2019-06-10T19:27:44.490Z,3.62
2019-06-10T19:32:48.220Z,3.90
2019-06-10T19:37:51.905Z,3.87
2019-06-10T19:42:55.865Z,3.83
2019-06-10T19:47:59.563Z,4.33
2019-06-10T19:53:03.643Z,4.45
2019-06-10T19:58:10.334Z,4.22
2019-06-10T20:03:13.171Z,4.50
2019-06-10T20:08:16.922Z,4.58
2019-06-10T20:13:23.026Z,4.87
2019-06-10T20:18:26.767Z,4.33
2019-06-10T20:23:33.148Z,4.08
2019-06-10T20:28:36.579Z,4.30
2019-06-10T20:33:43.095Z,4.58
2019-06-10T20:38:48.664Z,3.27
2019-06-10T20:43:55.349Z,3.42
2019-06-10T20:48:57.814Z,3.02
2019-06-10T20:54:02.642Z,2.80
2019-06-10T20:59:06.628Z,3.05
2019-06-10T21:04:12.967Z,3.42
2019-06-10T21:09:17.101Z,3.67
2019-06-10T21:14:22.928Z,3.83
2019-06-10T21:19:26.489Z,3.62
2019-06-10T21:24:32.224Z,4.17
2019-06-10T21:29:35.618Z,3.65
2019-06-10T21:34:39.337Z,4.25
2019-06-10T21:39:44.877Z,3.70
2019-06-10T21:44:49.976Z,4.40
2019-06-10T21:49:54.961Z,3.33
2019-06-10T21:54:59.095Z,3.90
2019-06-10T22:00:14.015Z,3.03
2019-06-10T22:05:17.126Z,3.40
2019-06-10T22:10:22.839Z,3.03
2019-06-10T22:15:26.573Z,2.97
2019-06-10T22:20:32.419Z,2.60
2019-06-10T22:25:35.953Z,3.17
2019-06-10T22:30:39.664Z,2.57
2019-06-10T22:35:43.337Z,2.87
2019-06-10T22:40:47.112Z,2.87
2019-06-10T22:45:53.795Z,3.50
2019-06-10T22:50:56.285Z,3.13
2019-06-10T22:56:00.003Z,3.20
2019-06-10T23:01:04.225Z,3.27
2019-06-10T23:06:08.240Z,2.53
2019-06-10T23:11:13.023Z,2.40
2019-06-10T23:16:16.860Z,2.60
2019-06-10T23:21:20.612Z,2.77
2019-06-10T23:26:24.873Z,2.60
2019-06-10T23:31:28.585Z,2.63
2019-06-10T23:36:32.669Z,2.70
2019-06-10T23:41:36.599Z,2.90
2019-06-10T23:46:42.428Z,2.80
2019-06-10T23:51:45.827Z,2.70
2019-06-10T23:56:49.497Z,3.30
